sensor_id;sensor_type;location;lat;lon;timestamp;P1;durP1;ratioP1;P2;durP2;ratioP2
13999;SDS011;7075;53.574;10.054;2023-12-07T00:02:15;91.43;;;38.07;;
13999;SDS011;7075;53.574;10.054;2023-12-07T00:04:41;99.17;;;41.50;;
13999;SDS011;7075;53.574;10.054;2023-12-07T00:07:07;80.67;;;36.33;;
13999;SDS011;7075;53.574;10.054;2023-12-07T00:09:33;77.73;;;36.27;;
13999;SDS011;7075;53.574;10.054;2023-12-07T00:11:59;84.27;;;37.63;;
13999;SDS011;7075;53.574;10.054;2023-12-07T00:14:25;82.70;;;35.77;;
13999;SDS011;7075;53.574;10.054;2023-12-07T00:16:51;84.17;;;38.97;;
13999;SDS011;7075;53.574;10.054;2023-12-07T00:19:17;80.43;;;36.63;;
13999;SDS011;7075;53.574;10.054;2023-12-07T00:21:43;77.23;;;35.50;;
13999;SDS011;7075;53.574;10.054;2023-12-07T00:24:09;72.83;;;34.80;;
13999;SDS011;7075;53.574;10.054;2023-12-07T00:26:35;73.80;;;35.23;;
13999;SDS011;7075;53.574;10.054;2023-12-07T00:29:03;69.43;;;33.70;;
13999;SDS011;7075;53.574;10.054;2023-12-07T00:31:29;72.83;;;34.83;;
13999;SDS011;7075;53.574;10.054;2023-12-07T00:33:55;73.20;;;35.93;;
13999;SDS011;7075;53.574;10.054;2023-12-07T00:36:21;76.67;;;35.63;;
13999;SDS011;7075;53.574;10.054;2023-12-07T00:38:47;72.00;;;32.90;;
13999;SDS011;7075;53.574;10.054;2023-12-07T00:41:13;73.93;;;35.80;;
13999;SDS011;7075;53.574;10.054;2023-12-07T00:43:39;66.83;;;35.03;;
13999;SDS011;7075;53.574;10.054;2023-12-07T00:46:09;69.20;;;36.07;;
13999;SDS011;7075;53.574;10.054;2023-12-07T00:48:35;74.57;;;36.93;;
13999;SDS011;7075;53.574;10.054;2023-12-07T00:51:12;66.37;;;33.60;;
13999;SDS011;7075;53.574;10.054;2023-12-07T00:53:37;72.43;;;34.37;;
13999;SDS011;7075;53.574;10.054;2023-12-07T00:56:04;67.13;;;33.23;;
13999;SDS011;7075;53.574;10.054;2023-12-07T00:58:30;69.87;;;33.33;;
13999;SDS011;7075;53.574;10.054;2023-12-07T01:00:57;77.57;;;35.07;;
13999;SDS011;7075;53.574;10.054;2023-12-07T01:03:23;67.50;;;33.23;;
13999;SDS011;7075;53.574;10.054;2023-12-07T01:05:49;71.53;;;34.10;;
13999;SDS011;7075;53.574;10.054;2023-12-07T01:08:15;74.07;;;35.30;;
13999;SDS011;7075;53.574;10.054;2023-12-07T01:10:41;70.97;;;34.07;;
13999;SDS011;7075;53.574;10.054;2023-12-07T01:13:07;72.13;;;35.70;;
13999;SDS011;7075;53.574;10.054;2023-12-07T01:15:33;72.53;;;35.70;;
13999;SDS011;7075;53.574;10.054;2023-12-07T01:17:59;74.13;;;34.73;;
13999;SDS011;7075;53.574;10.054;2023-12-07T01:20:25;73.80;;;34.87;;
13999;SDS011;7075;53.574;10.054;2023-12-07T01:22:51;75.63;;;33.60;;
13999;SDS011;7075;53.574;10.054;2023-12-07T01:25:17;69.67;;;34.37;;
13999;SDS011;7075;53.574;10.054;2023-12-07T01:27:46;73.20;;;35.63;;
13999;SDS011;7075;53.574;10.054;2023-12-07T01:30:12;67.70;;;33.53;;
13999;SDS011;7075;53.574;10.054;2023-12-07T01:32:38;79.47;;;35.53;;
13999;SDS011;7075;53.574;10.054;2023-12-07T01:35:05;74.73;;;35.07;;
13999;SDS011;7075;53.574;10.054;2023-12-07T01:37:31;67.83;;;33.53;;
13999;SDS011;7075;53.574;10.054;2023-12-07T01:39:57;76.20;;;35.43;;
13999;SDS011;7075;53.574;10.054;2023-12-07T01:42:23;68.63;;;35.67;;
13999;SDS011;7075;53.574;10.054;2023-12-07T01:44:49;74.23;;;36.97;;
13999;SDS011;7075;53.574;10.054;2023-12-07T01:47:15;69.23;;;34.53;;
13999;SDS011;7075;53.574;10.054;2023-12-07T01:49:41;71.97;;;34.80;;
13999;SDS011;7075;53.574;10.054;2023-12-07T01:52:07;68.60;;;33.90;;
13999;SDS011;7075;53.574;10.054;2023-12-07T01:54:34;64.20;;;33.03;;
13999;SDS011;7075;53.574;10.054;2023-12-07T01:57:00;72.23;;;34.67;;
13999;SDS011;7075;53.574;10.054;2023-12-07T01:59:27;67.53;;;34.47;;
13999;SDS011;7075;53.574;10.054;2023-12-07T02:01:53;72.57;;;34.23;;
13999;SDS011;7075;53.574;10.054;2023-12-07T02:04:19;67.43;;;34.17;;
13999;SDS011;7075;53.574;10.054;2023-12-07T02:06:45;61.87;;;31.87;;
13999;SDS011;7075;53.574;10.054;2023-12-07T02:09:11;63.10;;;33.20;;
13999;SDS011;7075;53.574;10.054;2023-12-07T02:11:37;73.33;;;34.83;;
13999;SDS011;7075;53.574;10.054;2023-12-07T02:14:03;73.43;;;34.30;;
13999;SDS011;7075;53.574;10.054;2023-12-07T02:16:37;71.43;;;34.27;;
13999;SDS011;7075;53.574;10.054;2023-12-07T02:21:34;80.90;;;37.87;;
13999;SDS011;7075;53.574;10.054;2023-12-07T02:24:02;81.00;;;35.43;;
13999;SDS011;7075;53.574;10.054;2023-12-07T02:26:31;75.47;;;35.80;;
13999;SDS011;7075;53.574;10.054;2023-12-07T02:28:57;81.00;;;36.77;;
13999;SDS011;7075;53.574;10.054;2023-12-07T02:31:23;80.43;;;37.00;;
13999;SDS011;7075;53.574;10.054;2023-12-07T02:33:52;80.47;;;35.97;;
13999;SDS011;7075;53.574;10.054;2023-12-07T02:36:19;78.03;;;36.03;;
13999;SDS011;7075;53.574;10.054;2023-12-07T02:38:46;70.57;;;34.93;;
13999;SDS011;7075;53.574;10.054;2023-12-07T02:41:12;79.23;;;35.67;;
13999;SDS011;7075;53.574;10.054;2023-12-07T02:43:39;72.17;;;34.63;;
13999;SDS011;7075;53.574;10.054;2023-12-07T02:46:05;73.60;;;34.30;;
13999;SDS011;7075;53.574;10.054;2023-12-07T02:48:31;77.10;;;34.50;;
13999;SDS011;7075;53.574;10.054;2023-12-07T02:50:57;75.03;;;34.93;;
13999;SDS011;7075;53.574;10.054;2023-12-07T02:53:23;65.67;;;31.73;;
13999;SDS011;7075;53.574;10.054;2023-12-07T02:55:49;68.73;;;32.87;;
13999;SDS011;7075;53.574;10.054;2023-12-07T02:58:15;78.97;;;34.70;;
13999;SDS011;7075;53.574;10.054;2023-12-07T03:00:41;69.43;;;33.63;;
13999;SDS011;7075;53.574;10.054;2023-12-07T03:03:07;78.27;;;34.63;;
13999;SDS011;7075;53.574;10.054;2023-12-07T03:05:33;71.87;;;33.13;;
13999;SDS011;7075;53.574;10.054;2023-12-07T03:07:59;72.67;;;34.37;;
13999;SDS011;7075;53.574;10.054;2023-12-07T03:10:26;66.30;;;32.57;;
13999;SDS011;7075;53.574;10.054;2023-12-07T03:12:52;62.97;;;30.93;;
13999;SDS011;7075;53.574;10.054;2023-12-07T03:15:18;66.17;;;33.20;;
13999;SDS011;7075;53.574;10.054;2023-12-07T03:17:44;65.93;;;31.83;;
13999;SDS011;7075;53.574;10.054;2023-12-07T03:20:10;66.23;;;31.97;;
13999;SDS011;7075;53.574;10.054;2023-12-07T03:22:36;61.50;;;31.63;;
13999;SDS011;7075;53.574;10.054;2023-12-07T03:25:02;67.97;;;32.70;;
13999;SDS011;7075;53.574;10.054;2023-12-07T03:27:28;53.10;;;28.53;;
13999;SDS011;7075;53.574;10.054;2023-12-07T03:29:54;64.70;;;32.77;;
13999;SDS011;7075;53.574;10.054;2023-12-07T03:32:20;59.57;;;30.07;;
13999;SDS011;7075;53.574;10.054;2023-12-07T03:34:46;62.77;;;30.60;;
13999;SDS011;7075;53.574;10.054;2023-12-07T03:37:12;59.90;;;29.60;;
13999;SDS011;7075;53.574;10.054;2023-12-07T03:42:09;54.77;;;30.70;;
13999;SDS011;7075;53.574;10.054;2023-12-07T03:44:35;64.97;;;32.87;;
13999;SDS011;7075;53.574;10.054;2023-12-07T03:47:01;52.70;;;30.83;;
13999;SDS011;7075;53.574;10.054;2023-12-07T03:49:27;62.53;;;30.23;;
13999;SDS011;7075;53.574;10.054;2023-12-07T03:51:53;59.83;;;30.83;;
13999;SDS011;7075;53.574;10.054;2023-12-07T03:54:21;58.90;;;30.63;;
13999;SDS011;7075;53.574;10.054;2023-12-07T03:56:47;61.83;;;31.33;;
13999;SDS011;7075;53.574;10.054;2023-12-07T03:59:15;56.30;;;31.03;;
13999;SDS011;7075;53.574;10.054;2023-12-07T04:01:41;61.57;;;31.90;;
13999;SDS011;7075;53.574;10.054;2023-12-07T04:04:07;58.20;;;30.10;;
13999;SDS011;7075;53.574;10.054;2023-12-07T04:06:33;55.93;;;30.47;;
13999;SDS011;7075;53.574;10.054;2023-12-07T04:08:59;52.73;;;30.37;;
13999;SDS011;7075;53.574;10.054;2023-12-07T04:11:25;56.30;;;30.97;;
13999;SDS011;7075;53.574;10.054;2023-12-07T04:13:51;58.90;;;31.17;;
13999;SDS011;7075;53.574;10.054;2023-12-07T04:16:18;57.30;;;30.03;;
13999;SDS011;7075;53.574;10.054;2023-12-07T04:18:44;59.23;;;30.70;;
13999;SDS011;7075;53.574;10.054;2023-12-07T04:21:10;61.67;;;32.20;;
13999;SDS011;7075;53.574;10.054;2023-12-07T04:23:36;57.80;;;30.23;;
13999;SDS011;7075;53.574;10.054;2023-12-07T04:26:02;56.80;;;31.87;;
13999;SDS011;7075;53.574;10.054;2023-12-07T04:28:28;57.43;;;30.50;;
13999;SDS011;7075;53.574;10.054;2023-12-07T04:33:57;62.83;;;32.60;;
13999;SDS011;7075;53.574;10.054;2023-12-07T04:36:24;56.87;;;31.60;;
13999;SDS011;7075;53.574;10.054;2023-12-07T04:38:50;56.50;;;30.93;;
13999;SDS011;7075;53.574;10.054;2023-12-07T04:41:16;59.67;;;33.27;;
13999;SDS011;7075;53.574;10.054;2023-12-07T04:43:42;60.60;;;32.67;;
13999;SDS011;7075;53.574;10.054;2023-12-07T04:46:08;56.57;;;28.53;;
13999;SDS011;7075;53.574;10.054;2023-12-07T04:48:34;55.67;;;31.53;;
13999;SDS011;7075;53.574;10.054;2023-12-07T04:51:00;59.30;;;30.33;;
13999;SDS011;7075;53.574;10.054;2023-12-07T04:53:26;54.63;;;31.07;;
13999;SDS011;7075;53.574;10.054;2023-12-07T04:55:52;56.50;;;30.63;;
13999;SDS011;7075;53.574;10.054;2023-12-07T04:58:18;53.73;;;31.53;;
13999;SDS011;7075;53.574;10.054;2023-12-07T05:00:44;53.77;;;29.83;;
13999;SDS011;7075;53.574;10.054;2023-12-07T05:03:10;60.67;;;31.70;;
13999;SDS011;7075;53.574;10.054;2023-12-07T05:05:36;49.17;;;28.70;;
13999;SDS011;7075;53.574;10.054;2023-12-07T05:08:02;50.10;;;28.83;;
13999;SDS011;7075;53.574;10.054;2023-12-07T05:10:29;49.73;;;29.57;;
13999;SDS011;7075;53.574;10.054;2023-12-07T05:12:54;49.80;;;28.77;;
13999;SDS011;7075;53.574;10.054;2023-12-07T05:15:22;53.60;;;30.10;;
13999;SDS011;7075;53.574;10.054;2023-12-07T05:17:48;53.20;;;30.20;;
13999;SDS011;7075;53.574;10.054;2023-12-07T05:20:14;51.97;;;30.03;;
13999;SDS011;7075;53.574;10.054;2023-12-07T05:22:40;53.13;;;29.83;;
13999;SDS011;7075;53.574;10.054;2023-12-07T05:25:06;49.70;;;29.27;;
13999;SDS011;7075;53.574;10.054;2023-12-07T05:27:33;48.23;;;28.30;;
13999;SDS011;7075;53.574;10.054;2023-12-07T05:29:59;55.53;;;29.90;;
13999;SDS011;7075;53.574;10.054;2023-12-07T05:32:26;48.57;;;26.70;;
13999;SDS011;7075;53.574;10.054;2023-12-07T05:34:52;54.57;;;27.83;;
13999;SDS011;7075;53.574;10.054;2023-12-07T05:37:18;50.00;;;27.10;;
13999;SDS011;7075;53.574;10.054;2023-12-07T05:39:44;42.60;;;25.73;;
13999;SDS011;7075;53.574;10.054;2023-12-07T05:42:10;47.07;;;26.50;;
13999;SDS011;7075;53.574;10.054;2023-12-07T05:44:36;43.37;;;25.90;;
13999;SDS011;7075;53.574;10.054;2023-12-07T05:47:02;43.43;;;25.73;;
13999;SDS011;7075;53.574;10.054;2023-12-07T05:49:29;46.90;;;25.67;;
13999;SDS011;7075;53.574;10.054;2023-12-07T05:51:55;41.47;;;26.00;;
13999;SDS011;7075;53.574;10.054;2023-12-07T05:54:21;46.60;;;28.00;;
13999;SDS011;7075;53.574;10.054;2023-12-07T05:56:56;41.10;;;24.13;;
13999;SDS011;7075;53.574;10.054;2023-12-07T05:59:22;46.87;;;26.67;;
13999;SDS011;7075;53.574;10.054;2023-12-07T06:01:48;43.77;;;25.93;;
13999;SDS011;7075;53.574;10.054;2023-12-07T06:04:16;43.27;;;24.00;;
13999;SDS011;7075;53.574;10.054;2023-12-07T06:06:42;47.17;;;26.07;;
13999;SDS011;7075;53.574;10.054;2023-12-07T06:09:08;40.57;;;24.90;;
13999;SDS011;7075;53.574;10.054;2023-12-07T06:11:35;41.47;;;24.63;;
13999;SDS011;7075;53.574;10.054;2023-12-07T06:14:01;38.27;;;23.30;;
13999;SDS011;7075;53.574;10.054;2023-12-07T06:16:27;44.77;;;25.73;;
13999;SDS011;7075;53.574;10.054;2023-12-07T06:18:54;42.77;;;26.33;;
13999;SDS011;7075;53.574;10.054;2023-12-07T06:21:21;42.63;;;25.43;;
13999;SDS011;7075;53.574;10.054;2023-12-07T06:23:47;43.70;;;25.57;;
13999;SDS011;7075;53.574;10.054;2023-12-07T06:26:13;42.40;;;25.73;;
13999;SDS011;7075;53.574;10.054;2023-12-07T06:28:39;42.80;;;26.47;;
13999;SDS011;7075;53.574;10.054;2023-12-07T06:31:07;46.43;;;25.50;;
13999;SDS011;7075;53.574;10.054;2023-12-07T06:33:33;39.97;;;24.67;;
13999;SDS011;7075;53.574;10.054;2023-12-07T06:36:00;43.00;;;25.60;;
13999;SDS011;7075;53.574;10.054;2023-12-07T06:38:28;48.57;;;27.57;;
13999;SDS011;7075;53.574;10.054;2023-12-07T06:40:54;42.30;;;25.13;;
13999;SDS011;7075;53.574;10.054;2023-12-07T06:43:21;46.37;;;26.83;;
13999;SDS011;7075;53.574;10.054;2023-12-07T06:45:48;40.60;;;24.93;;
13999;SDS011;7075;53.574;10.054;2023-12-07T06:48:14;40.13;;;25.17;;
13999;SDS011;7075;53.574;10.054;2023-12-07T06:50:39;38.07;;;24.17;;
13999;SDS011;7075;53.574;10.054;2023-12-07T06:53:06;41.07;;;25.73;;
13999;SDS011;7075;53.574;10.054;2023-12-07T06:55:32;46.80;;;26.97;;
13999;SDS011;7075;53.574;10.054;2023-12-07T06:57:58;46.07;;;26.30;;
13999;SDS011;7075;53.574;10.054;2023-12-07T07:00:24;49.87;;;28.80;;
13999;SDS011;7075;53.574;10.054;2023-12-07T07:02:51;43.73;;;26.67;;
13999;SDS011;7075;53.574;10.054;2023-12-07T07:05:17;48.47;;;26.97;;
13999;SDS011;7075;53.574;10.054;2023-12-07T07:07:43;48.07;;;27.60;;
13999;SDS011;7075;53.574;10.054;2023-12-07T07:10:09;48.27;;;27.87;;
13999;SDS011;7075;53.574;10.054;2023-12-07T07:12:36;51.30;;;28.97;;
13999;SDS011;7075;53.574;10.054;2023-12-07T07:15:02;52.57;;;28.73;;
13999;SDS011;7075;53.574;10.054;2023-12-07T07:17:28;44.63;;;28.87;;
13999;SDS011;7075;53.574;10.054;2023-12-07T07:19:54;52.00;;;30.30;;
13999;SDS011;7075;53.574;10.054;2023-12-07T07:22:21;49.40;;;28.47;;
13999;SDS011;7075;53.574;10.054;2023-12-07T07:24:47;45.90;;;27.77;;
13999;SDS011;7075;53.574;10.054;2023-12-07T07:27:13;41.80;;;26.30;;
13999;SDS011;7075;53.574;10.054;2023-12-07T07:29:39;45.63;;;26.90;;
13999;SDS011;7075;53.574;10.054;2023-12-07T07:32:05;43.27;;;26.40;;
13999;SDS011;7075;53.574;10.054;2023-12-07T07:34:31;45.53;;;26.87;;
13999;SDS011;7075;53.574;10.054;2023-12-07T07:36:57;45.70;;;27.87;;
13999;SDS011;7075;53.574;10.054;2023-12-07T07:39:23;46.43;;;28.27;;
13999;SDS011;7075;53.574;10.054;2023-12-07T07:41:50;48.37;;;27.77;;
13999;SDS011;7075;53.574;10.054;2023-12-07T07:44:16;50.60;;;28.60;;
13999;SDS011;7075;53.574;10.054;2023-12-07T07:46:43;52.03;;;30.77;;
13999;SDS011;7075;53.574;10.054;2023-12-07T07:49:09;50.67;;;30.30;;
13999;SDS011;7075;53.574;10.054;2023-12-07T07:51:35;50.03;;;29.70;;
13999;SDS011;7075;53.574;10.054;2023-12-07T07:54:01;46.13;;;28.73;;
13999;SDS011;7075;53.574;10.054;2023-12-07T07:56:27;42.27;;;26.87;;
13999;SDS011;7075;53.574;10.054;2023-12-07T07:58:53;45.37;;;28.77;;
13999;SDS011;7075;53.574;10.054;2023-12-07T08:01:19;46.37;;;29.43;;
13999;SDS011;7075;53.574;10.054;2023-12-07T08:03:45;50.40;;;28.43;;
13999;SDS011;7075;53.574;10.054;2023-12-07T08:06:11;49.33;;;28.63;;
13999;SDS011;7075;53.574;10.054;2023-12-07T08:08:37;46.47;;;28.43;;
13999;SDS011;7075;53.574;10.054;2023-12-07T08:11:03;47.50;;;28.40;;
13999;SDS011;7075;53.574;10.054;2023-12-07T08:13:30;46.97;;;28.93;;
13999;SDS011;7075;53.574;10.054;2023-12-07T08:15:56;51.43;;;29.87;;
13999;SDS011;7075;53.574;10.054;2023-12-07T08:18:31;46.93;;;28.03;;
13999;SDS011;7075;53.574;10.054;2023-12-07T08:20:57;45.00;;;27.50;;
13999;SDS011;7075;53.574;10.054;2023-12-07T08:23:23;51.37;;;29.20;;
13999;SDS011;7075;53.574;10.054;2023-12-07T08:25:49;42.40;;;27.40;;
13999;SDS011;7075;53.574;10.054;2023-12-07T08:28:16;45.27;;;28.50;;
13999;SDS011;7075;53.574;10.054;2023-12-07T08:30:42;44.17;;;27.60;;
13999;SDS011;7075;53.574;10.054;2023-12-07T08:33:09;47.47;;;28.50;;
13999;SDS011;7075;53.574;10.054;2023-12-07T08:35:36;47.47;;;27.23;;
13999;SDS011;7075;53.574;10.054;2023-12-07T08:38:02;49.83;;;28.83;;
13999;SDS011;7075;53.574;10.054;2023-12-07T08:40:29;47.37;;;29.50;;
13999;SDS011;7075;53.574;10.054;2023-12-07T08:42:55;49.60;;;28.87;;
13999;SDS011;7075;53.574;10.054;2023-12-07T08:45:21;49.40;;;29.00;;
13999;SDS011;7075;53.574;10.054;2023-12-07T08:47:48;49.97;;;28.63;;
13999;SDS011;7075;53.574;10.054;2023-12-07T08:50:15;49.67;;;28.70;;
13999;SDS011;7075;53.574;10.054;2023-12-07T08:52:41;45.73;;;27.23;;
13999;SDS011;7075;53.574;10.054;2023-12-07T08:55:07;44.33;;;27.23;;
13999;SDS011;7075;53.574;10.054;2023-12-07T08:57:33;45.23;;;26.87;;
13999;SDS011;7075;53.574;10.054;2023-12-07T08:59:59;41.93;;;27.50;;
13999;SDS011;7075;53.574;10.054;2023-12-07T09:02:25;40.37;;;26.63;;
13999;SDS011;7075;53.574;10.054;2023-12-07T09:04:51;49.30;;;29.07;;
13999;SDS011;7075;53.574;10.054;2023-12-07T09:07:17;54.33;;;31.37;;
13999;SDS011;7075;53.574;10.054;2023-12-07T09:09:44;49.60;;;29.63;;
13999;SDS011;7075;53.574;10.054;2023-12-07T09:12:13;52.17;;;30.37;;
13999;SDS011;7075;53.574;10.054;2023-12-07T09:14:39;54.03;;;30.97;;
13999;SDS011;7075;53.574;10.054;2023-12-07T09:17:05;52.27;;;29.40;;
13999;SDS011;7075;53.574;10.054;2023-12-07T09:19:31;47.23;;;29.80;;
13999;SDS011;7075;53.574;10.054;2023-12-07T09:21:57;53.43;;;29.60;;
13999;SDS011;7075;53.574;10.054;2023-12-07T09:24:24;55.30;;;30.50;;
13999;SDS011;7075;53.574;10.054;2023-12-07T09:26:50;50.00;;;30.13;;
13999;SDS011;7075;53.574;10.054;2023-12-07T09:29:16;50.60;;;29.27;;
13999;SDS011;7075;53.574;10.054;2023-12-07T09:31:42;60.37;;;34.57;;
13999;SDS011;7075;53.574;10.054;2023-12-07T09:34:08;54.03;;;33.33;;
13999;SDS011;7075;53.574;10.054;2023-12-07T09:36:34;56.47;;;33.30;;
13999;SDS011;7075;53.574;10.054;2023-12-07T09:39:00;57.93;;;33.30;;
13999;SDS011;7075;53.574;10.054;2023-12-07T09:41:27;57.37;;;31.57;;
13999;SDS011;7075;53.574;10.054;2023-12-07T09:43:54;56.80;;;32.70;;
13999;SDS011;7075;53.574;10.054;2023-12-07T09:46:20;54.50;;;33.10;;
13999;SDS011;7075;53.574;10.054;2023-12-07T09:48:46;52.93;;;30.67;;
13999;SDS011;7075;53.574;10.054;2023-12-07T09:51:15;46.37;;;29.20;;
13999;SDS011;7075;53.574;10.054;2023-12-07T09:53:42;45.57;;;30.00;;
13999;SDS011;7075;53.574;10.054;2023-12-07T09:56:08;49.17;;;29.10;;
13999;SDS011;7075;53.574;10.054;2023-12-07T09:58:35;51.07;;;31.00;;
13999;SDS011;7075;53.574;10.054;2023-12-07T10:01:02;47.90;;;30.93;;
13999;SDS011;7075;53.574;10.054;2023-12-07T10:03:28;47.53;;;30.87;;
13999;SDS011;7075;53.574;10.054;2023-12-07T10:05:56;56.47;;;33.77;;
13999;SDS011;7075;53.574;10.054;2023-12-07T10:08:29;52.83;;;32.03;;
13999;SDS011;7075;53.574;10.054;2023-12-07T10:11:02;53.53;;;32.27;;
13999;SDS011;7075;53.574;10.054;2023-12-07T10:13:30;51.83;;;31.67;;
13999;SDS011;7075;53.574;10.054;2023-12-07T10:16:06;55.33;;;33.77;;
13999;SDS011;7075;53.574;10.054;2023-12-07T10:18:33;61.10;;;35.53;;
13999;SDS011;7075;53.574;10.054;2023-12-07T10:21:00;56.77;;;34.63;;
13999;SDS011;7075;53.574;10.054;2023-12-07T10:23:28;54.60;;;35.00;;
13999;SDS011;7075;53.574;10.054;2023-12-07T10:25:56;54.77;;;31.63;;
13999;SDS011;7075;53.574;10.054;2023-12-07T10:28:24;56.43;;;33.90;;
13999;SDS011;7075;53.574;10.054;2023-12-07T10:30:50;63.53;;;34.20;;
13999;SDS011;7075;53.574;10.054;2023-12-07T10:33:19;57.93;;;33.43;;
13999;SDS011;7075;53.574;10.054;2023-12-07T10:35:46;58.03;;;34.33;;
13999;SDS011;7075;53.574;10.054;2023-12-07T10:38:16;53.13;;;33.50;;
13999;SDS011;7075;53.574;10.054;2023-12-07T10:40:45;54.97;;;33.70;;
13999;SDS011;7075;53.574;10.054;2023-12-07T10:43:11;56.17;;;33.33;;
13999;SDS011;7075;53.574;10.054;2023-12-07T10:45:38;54.77;;;33.10;;
13999;SDS011;7075;53.574;10.054;2023-12-07T10:48:09;52.73;;;32.77;;
13999;SDS011;7075;53.574;10.054;2023-12-07T10:50:37;61.40;;;35.90;;
13999;SDS011;7075;53.574;10.054;2023-12-07T10:53:08;56.50;;;34.40;;
13999;SDS011;7075;53.574;10.054;2023-12-07T10:55:38;60.27;;;35.40;;
13999;SDS011;7075;53.574;10.054;2023-12-07T10:58:09;58.70;;;35.30;;
13999;SDS011;7075;53.574;10.054;2023-12-07T11:00:40;64.43;;;37.17;;
13999;SDS011;7075;53.574;10.054;2023-12-07T11:03:16;63.23;;;37.27;;
13999;SDS011;7075;53.574;10.054;2023-12-07T11:05:44;59.27;;;35.87;;
13999;SDS011;7075;53.574;10.054;2023-12-07T11:08:13;62.33;;;34.60;;
13999;SDS011;7075;53.574;10.054;2023-12-07T11:10:56;57.70;;;34.33;;
13999;SDS011;7075;53.574;10.054;2023-12-07T11:13:29;62.57;;;36.03;;
13999;SDS011;7075;53.574;10.054;2023-12-07T11:15:56;60.70;;;36.30;;
13999;SDS011;7075;53.574;10.054;2023-12-07T11:18:24;64.37;;;37.13;;
13999;SDS011;7075;53.574;10.054;2023-12-07T11:20:53;65.13;;;36.87;;
13999;SDS011;7075;53.574;10.054;2023-12-07T11:23:21;69.13;;;37.50;;
13999;SDS011;7075;53.574;10.054;2023-12-07T11:25:47;62.93;;;36.03;;
13999;SDS011;7075;53.574;10.054;2023-12-07T11:28:15;69.73;;;40.27;;
13999;SDS011;7075;53.574;10.054;2023-12-07T11:30:42;66.83;;;37.20;;
13999;SDS011;7075;53.574;10.054;2023-12-07T11:33:10;56.07;;;32.60;;
13999;SDS011;7075;53.574;10.054;2023-12-07T11:38:22;67.03;;;36.57;;
13999;SDS011;7075;53.574;10.054;2023-12-07T11:40:50;64.53;;;36.43;;
13999;SDS011;7075;53.574;10.054;2023-12-07T11:43:18;64.50;;;37.37;;
13999;SDS011;7075;53.574;10.054;2023-12-07T11:45:49;68.27;;;36.13;;
13999;SDS011;7075;53.574;10.054;2023-12-07T11:48:16;62.77;;;35.37;;
13999;SDS011;7075;53.574;10.054;2023-12-07T11:51:01;60.53;;;34.53;;
13999;SDS011;7075;53.574;10.054;2023-12-07T11:53:28;57.37;;;33.87;;
13999;SDS011;7075;53.574;10.054;2023-12-07T11:55:57;57.33;;;32.83;;
13999;SDS011;7075;53.574;10.054;2023-12-07T11:58:27;57.83;;;33.73;;
13999;SDS011;7075;53.574;10.054;2023-12-07T12:00:54;57.90;;;31.57;;
13999;SDS011;7075;53.574;10.054;2023-12-07T12:03:26;52.57;;;32.40;;
13999;SDS011;7075;53.574;10.054;2023-12-07T12:05:53;60.23;;;33.97;;
13999;SDS011;7075;53.574;10.054;2023-12-07T12:08:22;50.17;;;30.97;;
13999;SDS011;7075;53.574;10.054;2023-12-07T12:10:50;53.73;;;31.07;;
13999;SDS011;7075;53.574;10.054;2023-12-07T12:13:18;48.27;;;29.33;;
13999;SDS011;7075;53.574;10.054;2023-12-07T12:15:45;56.13;;;29.50;;
13999;SDS011;7075;53.574;10.054;2023-12-07T12:18:16;50.33;;;30.67;;
13999;SDS011;7075;53.574;10.054;2023-12-07T12:20:44;45.20;;;28.57;;
13999;SDS011;7075;53.574;10.054;2023-12-07T12:23:10;47.43;;;29.07;;
13999;SDS011;7075;53.574;10.054;2023-12-07T12:25:37;49.13;;;29.03;;
13999;SDS011;7075;53.574;10.054;2023-12-07T12:28:06;47.03;;;27.73;;
13999;SDS011;7075;53.574;10.054;2023-12-07T12:30:33;41.17;;;27.20;;
13999;SDS011;7075;53.574;10.054;2023-12-07T12:33:00;42.10;;;26.63;;
13999;SDS011;7075;53.574;10.054;2023-12-07T12:35:27;40.63;;;26.70;;
13999;SDS011;7075;53.574;10.054;2023-12-07T12:37:53;49.33;;;30.10;;
13999;SDS011;7075;53.574;10.054;2023-12-07T12:40:23;43.90;;;27.63;;
13999;SDS011;7075;53.574;10.054;2023-12-07T12:42:52;43.33;;;27.83;;
13999;SDS011;7075;53.574;10.054;2023-12-07T12:45:18;45.50;;;26.97;;
13999;SDS011;7075;53.574;10.054;2023-12-07T12:47:46;42.83;;;27.00;;
13999;SDS011;7075;53.574;10.054;2023-12-07T12:50:59;42.13;;;26.63;;
13999;SDS011;7075;53.574;10.054;2023-12-07T12:53:02;41.10;;;27.40;;
13999;SDS011;7075;53.574;10.054;2023-12-07T12:55:31;44.37;;;26.67;;
13999;SDS011;7075;53.574;10.054;2023-12-07T12:57:59;39.70;;;25.53;;
13999;SDS011;7075;53.574;10.054;2023-12-07T13:00:25;45.00;;;28.50;;
13999;SDS011;7075;53.574;10.054;2023-12-07T13:02:51;46.37;;;28.27;;
13999;SDS011;7075;53.574;10.054;2023-12-07T13:05:19;42.50;;;26.80;;
13999;SDS011;7075;53.574;10.054;2023-12-07T13:07:45;54.90;;;31.70;;
13999;SDS011;7075;53.574;10.054;2023-12-07T13:10:14;56.23;;;33.80;;
13999;SDS011;7075;53.574;10.054;2023-12-07T13:12:42;43.40;;;26.87;;
13999;SDS011;7075;53.574;10.054;2023-12-07T13:15:09;44.80;;;28.00;;
13999;SDS011;7075;53.574;10.054;2023-12-07T13:17:37;46.67;;;29.00;;
13999;SDS011;7075;53.574;10.054;2023-12-07T13:20:04;43.90;;;28.57;;
13999;SDS011;7075;53.574;10.054;2023-12-07T13:22:32;50.17;;;29.97;;
13999;SDS011;7075;53.574;10.054;2023-12-07T13:24:58;50.27;;;29.97;;
13999;SDS011;7075;53.574;10.054;2023-12-07T13:27:26;53.10;;;31.13;;
13999;SDS011;7075;53.574;10.054;2023-12-07T13:29:54;49.57;;;30.43;;
13999;SDS011;7075;53.574;10.054;2023-12-07T13:32:22;51.93;;;30.80;;
13999;SDS011;7075;53.574;10.054;2023-12-07T13:34:48;44.23;;;28.70;;
13999;SDS011;7075;53.574;10.054;2023-12-07T13:37:15;42.50;;;27.97;;
13999;SDS011;7075;53.574;10.054;2023-12-07T13:39:42;45.57;;;28.20;;
13999;SDS011;7075;53.574;10.054;2023-12-07T13:42:08;48.63;;;27.93;;
13999;SDS011;7075;53.574;10.054;2023-12-07T13:44:37;41.90;;;26.80;;
13999;SDS011;7075;53.574;10.054;2023-12-07T13:47:04;40.37;;;26.60;;
13999;SDS011;7075;53.574;10.054;2023-12-07T13:49:31;39.87;;;24.63;;
13999;SDS011;7075;53.574;10.054;2023-12-07T13:51:58;35.90;;;24.57;;
13999;SDS011;7075;53.574;10.054;2023-12-07T13:54:26;42.63;;;26.23;;
13999;SDS011;7075;53.574;10.054;2023-12-07T13:56:52;39.97;;;25.40;;
13999;SDS011;7075;53.574;10.054;2023-12-07T13:59:18;35.50;;;23.80;;
13999;SDS011;7075;53.574;10.054;2023-12-07T14:01:46;37.43;;;24.73;;
13999;SDS011;7075;53.574;10.054;2023-12-07T14:04:12;39.70;;;24.80;;
13999;SDS011;7075;53.574;10.054;2023-12-07T14:06:38;38.47;;;24.53;;
13999;SDS011;7075;53.574;10.054;2023-12-07T14:09:04;39.13;;;24.37;;
13999;SDS011;7075;53.574;10.054;2023-12-07T14:11:31;35.37;;;22.13;;
13999;SDS011;7075;53.574;10.054;2023-12-07T14:13:57;35.93;;;24.20;;
13999;SDS011;7075;53.574;10.054;2023-12-07T14:16:23;37.53;;;24.87;;
13999;SDS011;7075;53.574;10.054;2023-12-07T14:18:50;42.70;;;27.07;;
13999;SDS011;7075;53.574;10.054;2023-12-07T14:21:20;36.50;;;23.93;;
13999;SDS011;7075;53.574;10.054;2023-12-07T14:23:48;39.40;;;25.27;;
13999;SDS011;7075;53.574;10.054;2023-12-07T14:26:15;45.87;;;29.07;;
13999;SDS011;7075;53.574;10.054;2023-12-07T14:28:42;42.27;;;25.67;;
13999;SDS011;7075;53.574;10.054;2023-12-07T14:31:08;43.47;;;26.83;;